sensor_id;sensor_type;location;lat;lon;timestamp;P1;durP1;ratioP1;P2;durP2;ratioP2
75413;SDS011;64758;52.122;5.404;2023-07-22T00:00:33;8.10;;;3.33;;
75413;SDS011;64758;52.122;5.404;2023-07-22T00:02:59;5.60;;;2.83;;
75413;SDS011;64758;52.122;5.404;2023-07-22T00:05:26;5.18;;;2.70;;
75413;SDS011;64758;52.122;5.404;2023-07-22T00:07:53;4.20;;;2.63;;
75413;SDS011;64758;52.122;5.404;2023-07-22T00:10:19;5.28;;;2.80;;
75413;SDS011;64758;52.122;5.404;2023-07-22T00:12:46;5.05;;;3.15;;
75413;SDS011;64758;52.122;5.404;2023-07-22T00:15:12;3.60;;;2.20;;
75413;SDS011;64758;52.122;5.404;2023-07-22T00:17:39;4.80;;;2.65;;
75413;SDS011;64758;52.122;5.404;2023-07-22T00:20:07;6.55;;;2.75;;
75413;SDS011;64758;52.122;5.404;2023-07-22T00:22:40;4.40;;;2.30;;
75413;SDS011;64758;52.122;5.404;2023-07-22T00:25:07;3.63;;;2.20;;
75413;SDS011;64758;52.122;5.404;2023-07-22T00:27:37;3.50;;;2.07;;
75413;SDS011;64758;52.122;5.404;2023-07-22T00:30:05;3.92;;;1.83;;
75413;SDS011;64758;52.122;5.404;2023-07-22T00:32:33;4.68;;;2.50;;
75413;SDS011;64758;52.122;5.404;2023-07-22T00:35:00;5.50;;;3.03;;
75413;SDS011;64758;52.122;5.404;2023-07-22T00:37:26;5.82;;;3.28;;
75413;SDS011;64758;52.122;5.404;2023-07-22T00:39:53;5.40;;;2.80;;
75413;SDS011;64758;52.122;5.404;2023-07-22T00:42:21;4.82;;;2.85;;
75413;SDS011;64758;52.122;5.404;2023-07-22T00:44:47;5.63;;;3.25;;
75413;SDS011;64758;52.122;5.404;2023-07-22T00:47:14;4.07;;;2.70;;
75413;SDS011;64758;52.122;5.404;2023-07-22T00:49:42;4.75;;;2.38;;
75413;SDS011;64758;52.122;5.404;2023-07-22T00:52:09;2.83;;;1.60;;
75413;SDS011;64758;52.122;5.404;2023-07-22T00:54:35;4.63;;;2.08;;
75413;SDS011;64758;52.122;5.404;2023-07-22T00:57:02;4.13;;;2.58;;
75413;SDS011;64758;52.122;5.404;2023-07-22T00:59:29;4.97;;;2.50;;
75413;SDS011;64758;52.122;5.404;2023-07-22T01:01:56;6.60;;;2.65;;
75413;SDS011;64758;52.122;5.404;2023-07-22T01:04:23;4.07;;;2.50;;
75413;SDS011;64758;52.122;5.404;2023-07-22T01:06:51;4.97;;;2.53;;
75413;SDS011;64758;52.122;5.404;2023-07-22T01:09:19;4.57;;;2.67;;
75413;SDS011;64758;52.122;5.404;2023-07-22T01:11:45;5.35;;;2.95;;
75413;SDS011;64758;52.122;5.404;2023-07-22T01:14:12;4.78;;;2.10;;
75413;SDS011;64758;52.122;5.404;2023-07-22T01:16:38;5.63;;;3.23;;
75413;SDS011;64758;52.122;5.404;2023-07-22T01:19:05;4.90;;;2.83;;
75413;SDS011;64758;52.122;5.404;2023-07-22T01:21:34;5.53;;;2.95;;
75413;SDS011;64758;52.122;5.404;2023-07-22T01:24:02;5.22;;;2.88;;
75413;SDS011;64758;52.122;5.404;2023-07-22T01:26:29;4.13;;;2.63;;
75413;SDS011;64758;52.122;5.404;2023-07-22T01:29:05;3.93;;;2.30;;
75413;SDS011;64758;52.122;5.404;2023-07-22T01:31:35;6.65;;;2.45;;
75413;SDS011;64758;52.122;5.404;2023-07-22T01:34:02;4.82;;;3.28;;
75413;SDS011;64758;52.122;5.404;2023-07-22T01:36:30;3.42;;;2.20;;
75413;SDS011;64758;52.122;5.404;2023-07-22T01:38:56;4.13;;;2.20;;
75413;SDS011;64758;52.122;5.404;2023-07-22T01:41:23;5.27;;;2.47;;
75413;SDS011;64758;52.122;5.404;2023-07-22T01:43:50;3.03;;;1.50;;
75413;SDS011;64758;52.122;5.404;2023-07-22T01:46:16;5.75;;;2.95;;
75413;SDS011;64758;52.122;5.404;2023-07-22T01:48:43;8.98;;;3.42;;
75413;SDS011;64758;52.122;5.404;2023-07-22T01:51:10;2.83;;;1.50;;
75413;SDS011;64758;52.122;5.404;2023-07-22T01:53:36;3.00;;;1.63;;
75413;SDS011;64758;52.122;5.404;2023-07-22T01:56:03;3.50;;;2.22;;
75413;SDS011;64758;52.122;5.404;2023-07-22T01:58:31;4.65;;;2.60;;
75413;SDS011;64758;52.122;5.404;2023-07-22T02:00:58;5.18;;;2.85;;
75413;SDS011;64758;52.122;5.404;2023-07-22T02:03:25;3.88;;;2.42;;
75413;SDS011;64758;52.122;5.404;2023-07-22T02:05:53;7.77;;;3.03;;
75413;SDS011;64758;52.122;5.404;2023-07-22T02:08:19;5.35;;;2.85;;
75413;SDS011;64758;52.122;5.404;2023-07-22T02:10:46;4.07;;;2.58;;
75413;SDS011;64758;52.122;5.404;2023-07-22T02:13:12;3.35;;;2.00;;
75413;SDS011;64758;52.122;5.404;2023-07-22T02:15:40;5.53;;;2.67;;
75413;SDS011;64758;52.122;5.404;2023-07-22T02:18:08;4.67;;;2.63;;
75413;SDS011;64758;52.122;5.404;2023-07-22T02:20:34;2.15;;;0.80;;
75413;SDS011;64758;52.122;5.404;2023-07-22T02:23:01;2.95;;;1.60;;
75413;SDS011;64758;52.122;5.404;2023-07-22T02:25:27;5.18;;;3.00;;
75413;SDS011;64758;52.122;5.404;2023-07-22T02:27:54;4.97;;;2.90;;
75413;SDS011;64758;52.122;5.404;2023-07-22T02:30:21;7.63;;;3.67;;
75413;SDS011;64758;52.122;5.404;2023-07-22T02:32:47;5.30;;;3.03;;
75413;SDS011;64758;52.122;5.404;2023-07-22T02:35:14;4.38;;;2.40;;
75413;SDS011;64758;52.122;5.404;2023-07-22T02:37:40;3.63;;;1.77;;
75413;SDS011;64758;52.122;5.404;2023-07-22T02:40:07;7.03;;;3.17;;
75413;SDS011;64758;52.122;5.404;2023-07-22T02:42:34;6.30;;;3.20;;
75413;SDS011;64758;52.122;5.404;2023-07-22T02:45:03;5.38;;;2.70;;
75413;SDS011;64758;52.122;5.404;2023-07-22T02:47:32;5.13;;;2.78;;
75413;SDS011;64758;52.122;5.404;2023-07-22T02:49:59;3.50;;;1.80;;
75413;SDS011;64758;52.122;5.404;2023-07-22T02:52:25;5.25;;;2.95;;
75413;SDS011;64758;52.122;5.404;2023-07-22T02:55:05;5.13;;;2.53;;
75413;SDS011;64758;52.122;5.404;2023-07-22T02:57:32;6.13;;;2.85;;
75413;SDS011;64758;52.122;5.404;2023-07-22T02:59:59;4.20;;;2.42;;
75413;SDS011;64758;52.122;5.404;2023-07-22T03:02:27;5.07;;;2.80;;
75413;SDS011;64758;52.122;5.404;2023-07-22T03:04:55;6.05;;;3.17;;
75413;SDS011;64758;52.122;5.404;2023-07-22T03:07:22;4.73;;;2.67;;
75413;SDS011;64758;52.122;5.404;2023-07-22T03:09:48;5.88;;;2.90;;
75413;SDS011;64758;52.122;5.404;2023-07-22T03:12:15;8.35;;;3.10;;
75413;SDS011;64758;52.122;5.404;2023-07-22T03:14:41;4.97;;;2.92;;
75413;SDS011;64758;52.122;5.404;2023-07-22T03:17:08;7.55;;;3.40;;
75413;SDS011;64758;52.122;5.404;2023-07-22T03:19:35;5.30;;;2.80;;
75413;SDS011;64758;52.122;5.404;2023-07-22T03:22:02;4.40;;;2.65;;
75413;SDS011;64758;52.122;5.404;2023-07-22T03:24:28;5.55;;;3.10;;
75413;SDS011;64758;52.122;5.404;2023-07-22T03:26:55;3.97;;;2.38;;
75413;SDS011;64758;52.122;5.404;2023-07-22T03:29:22;8.82;;;3.03;;
75413;SDS011;64758;52.122;5.404;2023-07-22T03:31:50;4.50;;;2.57;;
75413;SDS011;64758;52.122;5.404;2023-07-22T03:34:17;5.75;;;2.95;;
75413;SDS011;64758;52.122;5.404;2023-07-22T03:36:43;7.95;;;3.53;;
75413;SDS011;64758;52.122;5.404;2023-07-22T03:39:10;9.40;;;4.40;;
75413;SDS011;64758;52.122;5.404;2023-07-22T03:41:36;7.57;;;4.00;;
75413;SDS011;64758;52.122;5.404;2023-07-22T03:44:03;6.67;;;3.67;;
75413;SDS011;64758;52.122;5.404;2023-07-22T03:46:29;8.13;;;3.58;;
75413;SDS011;64758;52.122;5.404;2023-07-22T03:48:56;7.80;;;4.22;;
75413;SDS011;64758;52.122;5.404;2023-07-22T03:51:22;7.38;;;3.70;;
75413;SDS011;64758;52.122;5.404;2023-07-22T03:53:49;9.18;;;4.65;;
75413;SDS011;64758;52.122;5.404;2023-07-22T03:56:15;7.63;;;3.83;;
75413;SDS011;64758;52.122;5.404;2023-07-22T03:58:42;9.13;;;4.20;;
75413;SDS011;64758;52.122;5.404;2023-07-22T04:01:12;10.77;;;4.43;;
75413;SDS011;64758;52.122;5.404;2023-07-22T04:03:39;7.88;;;4.03;;
75413;SDS011;64758;52.122;5.404;2023-07-22T04:06:05;7.88;;;4.60;;
75413;SDS011;64758;52.122;5.404;2023-07-22T04:08:32;6.57;;;3.87;;
75413;SDS011;64758;52.122;5.404;2023-07-22T04:10:58;8.10;;;4.00;;
75413;SDS011;64758;52.122;5.404;2023-07-22T04:13:25;10.57;;;4.47;;
75413;SDS011;64758;52.122;5.404;2023-07-22T04:15:53;6.70;;;3.60;;
75413;SDS011;64758;52.122;5.404;2023-07-22T04:18:20;6.50;;;3.53;;
75413;SDS011;64758;52.122;5.404;2023-07-22T04:20:47;8.00;;;4.20;;
75413;SDS011;64758;52.122;5.404;2023-07-22T04:23:17;6.90;;;3.55;;
75413;SDS011;64758;52.122;5.404;2023-07-22T04:25:44;6.75;;;3.30;;
75413;SDS011;64758;52.122;5.404;2023-07-22T04:28:11;7.00;;;3.95;;
75413;SDS011;64758;52.122;5.404;2023-07-22T04:30:38;10.20;;;5.00;;
75413;SDS011;64758;52.122;5.404;2023-07-22T04:33:06;8.33;;;4.00;;
75413;SDS011;64758;52.122;5.404;2023-07-22T04:35:32;7.88;;;4.05;;
75413;SDS011;64758;52.122;5.404;2023-07-22T04:37:59;9.63;;;4.68;;
75413;SDS011;64758;52.122;5.404;2023-07-22T04:40:26;9.93;;;4.28;;
75413;SDS011;64758;52.122;5.404;2023-07-22T04:42:52;9.95;;;5.28;;
75413;SDS011;64758;52.122;5.404;2023-07-22T04:45:19;10.83;;;4.73;;
75413;SDS011;64758;52.122;5.404;2023-07-22T04:47:45;7.72;;;4.57;;
75413;SDS011;64758;52.122;5.404;2023-07-22T04:50:14;9.18;;;4.78;;
75413;SDS011;64758;52.122;5.404;2023-07-22T04:52:42;11.70;;;5.03;;
75413;SDS011;64758;52.122;5.404;2023-07-22T04:55:10;9.00;;;5.10;;
75413;SDS011;64758;52.122;5.404;2023-07-22T04:57:37;11.87;;;6.07;;
75413;SDS011;64758;52.122;5.404;2023-07-22T05:00:05;8.77;;;5.20;;
75413;SDS011;64758;52.122;5.404;2023-07-22T05:02:32;9.40;;;5.07;;
75413;SDS011;64758;52.122;5.404;2023-07-22T05:04:59;10.32;;;4.88;;
75413;SDS011;64758;52.122;5.404;2023-07-22T05:07:25;9.32;;;5.40;;
75413;SDS011;64758;52.122;5.404;2023-07-22T05:09:56;9.27;;;4.80;;
75413;SDS011;64758;52.122;5.404;2023-07-22T05:12:22;11.07;;;5.78;;
75413;SDS011;64758;52.122;5.404;2023-07-22T05:14:49;12.00;;;5.63;;
75413;SDS011;64758;52.122;5.404;2023-07-22T05:17:15;9.90;;;5.32;;
75413;SDS011;64758;52.122;5.404;2023-07-22T05:19:42;11.13;;;6.55;;
75413;SDS011;64758;52.122;5.404;2023-07-22T05:22:09;14.70;;;6.50;;
75413;SDS011;64758;52.122;5.404;2023-07-22T05:24:36;15.82;;;7.43;;
75413;SDS011;64758;52.122;5.404;2023-07-22T05:27:02;20.13;;;8.23;;
75413;SDS011;64758;52.122;5.404;2023-07-22T05:29:35;18.67;;;8.25;;
75413;SDS011;64758;52.122;5.404;2023-07-22T05:32:01;19.35;;;8.65;;
75413;SDS011;64758;52.122;5.404;2023-07-22T05:34:28;20.40;;;8.73;;
75413;SDS011;64758;52.122;5.404;2023-07-22T05:36:54;20.90;;;9.10;;
75413;SDS011;64758;52.122;5.404;2023-07-22T05:39:21;20.38;;;9.68;;
75413;SDS011;64758;52.122;5.404;2023-07-22T05:41:47;22.48;;;9.88;;
75413;SDS011;64758;52.122;5.404;2023-07-22T05:44:14;22.85;;;9.88;;
75413;SDS011;64758;52.122;5.404;2023-07-22T05:46:41;21.53;;;9.57;;
75413;SDS011;64758;52.122;5.404;2023-07-22T05:49:08;21.85;;;9.73;;
75413;SDS011;64758;52.122;5.404;2023-07-22T05:51:35;29.48;;;11.70;;
75413;SDS011;64758;52.122;5.404;2023-07-22T05:54:01;22.27;;;9.82;;
75413;SDS011;64758;52.122;5.404;2023-07-22T05:56:28;23.00;;;9.63;;
75413;SDS011;64758;52.122;5.404;2023-07-22T05:58:55;23.77;;;10.20;;
75413;SDS011;64758;52.122;5.404;2023-07-22T06:01:22;21.42;;;10.40;;
75413;SDS011;64758;52.122;5.404;2023-07-22T06:03:50;25.15;;;10.70;;
75413;SDS011;64758;52.122;5.404;2023-07-22T06:06:17;25.15;;;11.02;;
75413;SDS011;64758;52.122;5.404;2023-07-22T06:08:44;25.65;;;11.88;;
75413;SDS011;64758;52.122;5.404;2023-07-22T06:11:11;27.60;;;11.10;;
75413;SDS011;64758;52.122;5.404;2023-07-22T06:13:37;24.52;;;10.98;;
75413;SDS011;64758;52.122;5.404;2023-07-22T06:16:04;26.42;;;11.32;;
75413;SDS011;64758;52.122;5.404;2023-07-22T06:18:31;24.35;;;10.60;;
75413;SDS011;64758;52.122;5.404;2023-07-22T06:20:57;27.77;;;11.82;;
75413;SDS011;64758;52.122;5.404;2023-07-22T06:23:24;22.53;;;10.60;;
75413;SDS011;64758;52.122;5.404;2023-07-22T06:25:50;23.52;;;11.00;;
75413;SDS011;64758;52.122;5.404;2023-07-22T06:28:18;22.77;;;10.80;;
75413;SDS011;64758;52.122;5.404;2023-07-22T06:30:44;24.20;;;11.07;;
75413;SDS011;64758;52.122;5.404;2023-07-22T06:33:11;23.63;;;11.32;;
75413;SDS011;64758;52.122;5.404;2023-07-22T06:35:37;25.47;;;11.27;;
75413;SDS011;64758;52.122;5.404;2023-07-22T06:38:04;23.38;;;10.60;;
75413;SDS011;64758;52.122;5.404;2023-07-22T06:40:30;23.90;;;11.15;;
75413;SDS011;64758;52.122;5.404;2023-07-22T06:42:57;27.00;;;11.68;;
75413;SDS011;64758;52.122;5.404;2023-07-22T06:45:24;23.25;;;10.45;;
75413;SDS011;64758;52.122;5.404;2023-07-22T06:47:50;29.73;;;14.30;;
75413;SDS011;64758;52.122;5.404;2023-07-22T06:50:17;26.08;;;10.45;;
75413;SDS011;64758;52.122;5.404;2023-07-22T06:52:43;20.83;;;10.57;;
75413;SDS011;64758;52.122;5.404;2023-07-22T06:55:10;22.40;;;11.07;;
75413;SDS011;64758;52.122;5.404;2023-07-22T06:57:38;21.02;;;10.77;;
75413;SDS011;64758;52.122;5.404;2023-07-22T07:00:04;23.07;;;12.03;;
75413;SDS011;64758;52.122;5.404;2023-07-22T07:02:31;30.27;;;12.60;;
75413;SDS011;64758;52.122;5.404;2023-07-22T07:04:58;20.40;;;10.63;;
75413;SDS011;64758;52.122;5.404;2023-07-22T07:07:25;26.42;;;12.10;;
75413;SDS011;64758;52.122;5.404;2023-07-22T07:09:51;26.77;;;11.23;;
75413;SDS011;64758;52.122;5.404;2023-07-22T07:12:18;23.33;;;10.87;;
75413;SDS011;64758;52.122;5.404;2023-07-22T07:14:44;20.90;;;10.63;;
75413;SDS011;64758;52.122;5.404;2023-07-22T07:17:11;26.85;;;11.55;;
75413;SDS011;64758;52.122;5.404;2023-07-22T07:19:37;20.77;;;10.57;;
75413;SDS011;64758;52.122;5.404;2023-07-22T07:22:04;21.38;;;10.77;;
75413;SDS011;64758;52.122;5.404;2023-07-22T07:24:31;24.90;;;10.80;;
75413;SDS011;64758;52.122;5.404;2023-07-22T07:26:57;21.30;;;10.93;;
75413;SDS011;64758;52.122;5.404;2023-07-22T07:29:24;22.33;;;10.98;;
75413;SDS011;64758;52.122;5.404;2023-07-22T07:32:11;20.38;;;10.25;;
75413;SDS011;64758;52.122;5.404;2023-07-22T07:34:38;20.38;;;10.05;;
75413;SDS011;64758;52.122;5.404;2023-07-22T07:37:04;24.37;;;10.20;;
75413;SDS011;64758;52.122;5.404;2023-07-22T07:39:31;22.83;;;10.68;;
75413;SDS011;64758;52.122;5.404;2023-07-22T07:41:58;19.48;;;9.60;;
75413;SDS011;64758;52.122;5.404;2023-07-22T07:44:25;17.13;;;10.05;;
75413;SDS011;64758;52.122;5.404;2023-07-22T07:46:51;21.23;;;10.10;;
75413;SDS011;64758;52.122;5.404;2023-07-22T07:49:18;16.77;;;8.90;;
75413;SDS011;64758;52.122;5.404;2023-07-22T07:51:44;18.25;;;9.18;;
75413;SDS011;64758;52.122;5.404;2023-07-22T07:54:11;20.17;;;8.77;;
75413;SDS011;64758;52.122;5.404;2023-07-22T07:56:37;18.23;;;8.80;;
75413;SDS011;64758;52.122;5.404;2023-07-22T07:59:04;17.73;;;8.35;;
75413;SDS011;64758;52.122;5.404;2023-07-22T08:01:32;15.90;;;8.70;;
75413;SDS011;64758;52.122;5.404;2023-07-22T08:03:58;19.33;;;7.95;;
75413;SDS011;64758;52.122;5.404;2023-07-22T08:06:25;15.25;;;8.13;;
75413;SDS011;64758;52.122;5.404;2023-07-22T08:08:52;15.85;;;8.40;;
75413;SDS011;64758;52.122;5.404;2023-07-22T08:11:19;17.58;;;9.38;;
75413;SDS011;64758;52.122;5.404;2023-07-22T08:13:46;16.07;;;7.83;;
75413;SDS011;64758;52.122;5.404;2023-07-22T08:16:13;13.98;;;7.78;;
75413;SDS011;64758;52.122;5.404;2023-07-22T08:18:40;15.68;;;8.48;;
75413;SDS011;64758;52.122;5.404;2023-07-22T08:21:07;14.02;;;7.93;;
75413;SDS011;64758;52.122;5.404;2023-07-22T08:23:34;14.80;;;8.50;;
75413;SDS011;64758;52.122;5.404;2023-07-22T08:26:03;16.87;;;7.87;;
75413;SDS011;64758;52.122;5.404;2023-07-22T08:28:32;13.32;;;7.30;;
75413;SDS011;64758;52.122;5.404;2023-07-22T08:30:59;15.23;;;7.90;;
75413;SDS011;64758;52.122;5.404;2023-07-22T08:33:27;12.35;;;6.65;;
75413;SDS011;64758;52.122;5.404;2023-07-22T08:36:07;18.40;;;7.80;;
75413;SDS011;64758;52.122;5.404;2023-07-22T08:38:34;14.73;;;7.30;;
75413;SDS011;64758;52.122;5.404;2023-07-22T08:41:00;13.32;;;6.88;;
75413;SDS011;64758;52.122;5.404;2023-07-22T08:43:27;13.93;;;7.25;;
75413;SDS011;64758;52.122;5.404;2023-07-22T08:45:55;14.60;;;8.43;;
75413;SDS011;64758;52.122;5.404;2023-07-22T08:48:26;12.60;;;7.53;;
75413;SDS011;64758;52.122;5.404;2023-07-22T08:50:59;14.73;;;7.80;;
75413;SDS011;64758;52.122;5.404;2023-07-22T08:53:31;12.07;;;7.00;;
75413;SDS011;64758;52.122;5.404;2023-07-22T08:55:59;11.23;;;6.45;;
75413;SDS011;64758;52.122;5.404;2023-07-22T08:58:27;13.77;;;8.05;;
75413;SDS011;64758;52.122;5.404;2023-07-22T09:00:55;12.00;;;6.60;;
75413;SDS011;64758;52.122;5.404;2023-07-22T09:03:23;14.40;;;6.67;;
75413;SDS011;64758;52.122;5.404;2023-07-22T09:05:50;7.40;;;5.47;;
75413;SDS011;64758;52.122;5.404;2023-07-22T09:08:18;10.27;;;4.90;;
75413;SDS011;64758;52.122;5.404;2023-07-22T09:10:44;9.07;;;5.18;;
75413;SDS011;64758;52.122;5.404;2023-07-22T09:13:13;10.77;;;5.30;;
75413;SDS011;64758;52.122;5.404;2023-07-22T09:15:40;10.37;;;4.60;;
75413;SDS011;64758;52.122;5.404;2023-07-22T09:18:07;9.70;;;5.15;;
75413;SDS011;64758;52.122;5.404;2023-07-22T09:20:34;6.55;;;4.57;;
75413;SDS011;64758;52.122;5.404;2023-07-22T09:23:01;11.18;;;5.13;;
75413;SDS011;64758;52.122;5.404;2023-07-22T09:25:39;9.52;;;4.03;;
75413;SDS011;64758;52.122;5.404;2023-07-22T09:28:07;7.07;;;4.23;;
75413;SDS011;64758;52.122;5.404;2023-07-22T09:30:34;7.65;;;3.72;;
75413;SDS011;64758;52.122;5.404;2023-07-22T09:33:07;6.80;;;3.88;;
75413;SDS011;64758;52.122;5.404;2023-07-22T09:35:46;7.53;;;3.30;;
75413;SDS011;64758;52.122;5.404;2023-07-22T09:38:14;7.80;;;4.75;;
75413;SDS011;64758;52.122;5.404;2023-07-22T09:40:48;6.80;;;4.63;;
75413;SDS011;64758;52.122;5.404;2023-07-22T09:43:14;9.63;;;4.43;;
75413;SDS011;64758;52.122;5.404;2023-07-22T09:45:41;9.15;;;4.20;;
75413;SDS011;64758;52.122;5.404;2023-07-22T09:48:08;6.28;;;4.30;;
75413;SDS011;64758;52.122;5.404;2023-07-22T09:50:35;7.53;;;4.40;;
75413;SDS011;64758;52.122;5.404;2023-07-22T09:53:02;7.27;;;4.17;;
75413;SDS011;64758;52.122;5.404;2023-07-22T09:55:30;7.35;;;4.40;;
75413;SDS011;64758;52.122;5.404;2023-07-22T09:58:02;7.55;;;4.03;;
75413;SDS011;64758;52.122;5.404;2023-07-22T10:00:30;6.38;;;4.32;;
75413;SDS011;64758;52.122;5.404;2023-07-22T10:03:00;7.28;;;4.88;;
75413;SDS011;64758;52.122;5.404;2023-07-22T10:05:28;9.73;;;5.23;;
75413;SDS011;64758;52.122;5.404;2023-07-22T10:07:58;6.85;;;4.70;;
75413;SDS011;64758;52.122;5.404;2023-07-22T10:10:35;7.50;;;5.25;;
75413;SDS011;64758;52.122;5.404;2023-07-22T10:13:04;5.45;;;4.13;;
75413;SDS011;64758;52.122;5.404;2023-07-22T10:15:32;6.75;;;3.88;;
75413;SDS011;64758;52.122;5.404;2023-07-22T10:18:01;12.67;;;4.17;;
75413;SDS011;64758;52.122;5.404;2023-07-22T10:20:29;8.77;;;3.97;;
75413;SDS011;64758;52.122;5.404;2023-07-22T10:22:56;10.02;;;5.50;;
75413;SDS011;64758;52.122;5.404;2023-07-22T10:25:22;5.63;;;3.65;;
75413;SDS011;64758;52.122;5.404;2023-07-22T10:27:51;5.22;;;3.50;;
75413;SDS011;64758;52.122;5.404;2023-07-22T10:30:18;8.23;;;4.10;;
75413;SDS011;64758;52.122;5.404;2023-07-22T10:32:46;5.95;;;3.47;;
75413;SDS011;64758;52.122;5.404;2023-07-22T10:43:10;3.67;;;2.90;;
75413;SDS011;64758;52.122;5.404;2023-07-22T10:45:40;3.80;;;2.50;;
75413;SDS011;64758;52.122;5.404;2023-07-22T10:48:09;7.22;;;3.35;;
75413;SDS011;64758;52.122;5.404;2023-07-22T10:53:10;7.07;;;3.05;;
75413;SDS011;64758;52.122;5.404;2023-07-22T11:14:24;5.85;;;3.17;;
75413;SDS011;64758;52.122;5.404;2023-07-22T11:16:52;4.22;;;2.25;;
75413;SDS011;64758;52.122;5.404;2023-07-22T11:19:19;4.75;;;2.80;;
75413;SDS011;64758;52.122;5.404;2023-07-22T11:21:48;3.97;;;2.63;;
75413;SDS011;64758;52.122;5.404;2023-07-22T11:24:16;5.07;;;3.15;;
75413;SDS011;64758;52.122;5.404;2023-07-22T11:26:44;5.22;;;3.10;;
75413;SDS011;64758;52.122;5.404;2023-07-22T11:29:12;4.13;;;3.33;;
75413;SDS011;64758;52.122;5.404;2023-07-22T11:31:40;5.10;;;3.30;;
75413;SDS011;64758;52.122;5.404;2023-07-22T11:34:14;6.73;;;3.20;;
75413;SDS011;64758;52.122;5.404;2023-07-22T11:36:45;7.43;;;3.60;;
75413;SDS011;64758;52.122;5.404;2023-07-22T11:39:20;5.75;;;2.90;;
75413;SDS011;64758;52.122;5.404;2023-07-22T11:41:49;7.22;;;3.15;;
75413;SDS011;64758;52.122;5.404;2023-07-22T11:44:17;3.58;;;2.55;;
75413;SDS011;64758;52.122;5.404;2023-07-22T11:46:56;4.67;;;2.67;;
75413;SDS011;64758;52.122;5.404;2023-07-22T11:49:43;7.50;;;3.10;;
75413;SDS011;64758;52.122;5.404;2023-07-22T11:52:17;4.75;;;3.00;;
75413;SDS011;64758;52.122;5.404;2023-07-22T11:54:44;4.38;;;2.40;;
75413;SDS011;64758;52.122;5.404;2023-07-22T11:57:21;4.50;;;2.60;;
75413;SDS011;64758;52.122;5.404;2023-07-22T11:59:50;4.33;;;2.90;;
75413;SDS011;64758;52.122;5.404;2023-07-22T12:02:22;4.43;;;2.15;;
75413;SDS011;64758;52.122;5.404;2023-07-22T12:04:57;5.75;;;2.50;;
75413;SDS011;64758;52.122;5.404;2023-07-22T12:07:28;5.82;;;2.40;;
75413;SDS011;64758;52.122;5.404;2023-07-22T12:10:03;5.53;;;2.20;;
75413;SDS011;64758;52.122;5.404;2023-07-22T12:12:43;7.00;;;2.60;;
75413;SDS011;64758;52.122;5.404;2023-07-22T12:15:13;2.50;;;1.92;;
75413;SDS011;64758;52.122;5.404;2023-07-22T12:20:38;3.75;;;2.20;;
75413;SDS011;64758;52.122;5.404;2023-07-22T12:23:06;5.13;;;2.17;;
75413;SDS011;64758;52.122;5.404;2023-07-22T12:25:33;3.07;;;2.47;;
75413;SDS011;64758;52.122;5.404;2023-07-22T12:27:59;4.97;;;2.28;;
75413;SDS011;64758;52.122;5.404;2023-07-22T12:30:26;5.43;;;2.20;;
75413;SDS011;64758;52.122;5.404;2023-07-22T12:32:54;6.30;;;2.03;;
75413;SDS011;64758;52.122;5.404;2023-07-22T12:35:20;4.00;;;2.60;;
75413;SDS011;64758;52.122;5.404;2023-07-22T12:37:47;3.03;;;1.67;;
75413;SDS011;64758;52.122;5.404;2023-07-22T12:40:13;4.20;;;2.38;;
75413;SDS011;64758;52.122;5.404;2023-07-22T12:42:40;5.20;;;2.10;;
75413;SDS011;64758;52.122;5.404;2023-07-22T12:45:07;4.88;;;2.22;;
75413;SDS011;64758;52.122;5.404;2023-07-22T12:47:34;4.13;;;2.15;;
75413;SDS011;64758;52.122;5.404;2023-07-22T12:50:01;5.73;;;2.23;;
75413;SDS011;64758;52.122;5.404;2023-07-22T12:52:28;5.00;;;2.10;;
75413;SDS011;64758;52.122;5.404;2023-07-22T12:54:54;3.50;;;2.75;;
75413;SDS011;64758;52.122;5.404;2023-07-22T12:57:21;4.97;;;2.60;;
75413;SDS011;64758;52.122;5.404;2023-07-22T12:59:47;7.00;;;2.70;;
75413;SDS011;64758;52.122;5.404;2023-07-22T13:02:15;4.57;;;2.67;;
75413;SDS011;64758;52.122;5.404;2023-07-22T13:04:42;7.13;;;2.65;;
75413;SDS011;64758;52.122;5.404;2023-07-22T13:07:10;5.10;;;3.00;;
75413;SDS011;64758;52.122;5.404;2023-07-22T13:09:37;3.83;;;3.05;;
75413;SDS011;64758;52.122;5.404;2023-07-22T13:12:03;4.78;;;3.38;;
75413;SDS011;64758;52.122;5.404;2023-07-22T13:14:30;7.47;;;3.60;;
75413;SDS011;64758;52.122;5.404;2023-07-22T13:16:57;8.60;;;3.45;;
75413;SDS011;64758;52.122;5.404;2023-07-22T13:19:23;6.18;;;3.42;;
75413;SDS011;64758;52.122;5.404;2023-07-22T13:21:50;6.60;;;4.03;;
75413;SDS011;64758;52.122;5.404;2023-07-22T13:24:16;7.28;;;3.28;;
75413;SDS011;64758;52.122;5.404;2023-07-22T13:26:43;6.37;;;3.90;;
75413;SDS011;64758;52.122;5.404;2023-07-22T13:29:09;6.57;;;3.72;;
75413;SDS011;64758;52.122;5.404;2023-07-22T13:31:36;6.07;;;2.88;;
75413;SDS011;64758;52.122;5.404;2023-07-22T13:34:03;3.22;;;2.55;;
75413;SDS011;64758;52.122;5.404;2023-07-22T13:36:30;6.15;;;2.70;;
75413;SDS011;64758;52.122;5.404;2023-07-22T13:38:56;4.77;;;2.63;;
75413;SDS011;64758;52.122;5.404;2023-07-22T13:41:23;3.67;;;2.35;;
75413;SDS011;64758;52.122;5.404;2023-07-22T13:43:49;3.38;;;2.10;;
75413;SDS011;64758;52.122;5.404;2023-07-22T13:46:16;4.40;;;2.15;;
75413;SDS011;64758;52.122;5.404;2023-07-22T13:48:42;4.88;;;2.22;;
75413;SDS011;64758;52.122;5.404;2023-07-22T13:51:09;3.97;;;1.70;;
75413;SDS011;64758;52.122;5.404;2023-07-22T13:53:35;4.13;;;2.03;;
75413;SDS011;64758;52.122;5.404;2023-07-22T13:56:02;4.55;;;1.67;;
75413;SDS011;64758;52.122;5.404;2023-07-22T13:58:29;3.13;;;1.50;;
75413;SDS011;64758;52.122;5.404;2023-07-22T14:00:56;3.22;;;1.33;;
75413;SDS011;64758;52.122;5.404;2023-07-22T14:03:24;2.97;;;1.47;;
75413;SDS011;64758;52.122;5.404;2023-07-22T14:05:50;3.70;;;1.60;;
75413;SDS011;64758;52.122;5.404;2023-07-22T14:08:17;5.40;;;1.65;;
75413;SDS011;64758;52.122;5.404;2023-07-22T14:10:43;3.38;;;1.50;;
75413;SDS011;64758;52.122;5.404;2023-07-22T14:13:10;3.20;;;1.30;;
75413;SDS011;64758;52.122;5.404;2023-07-22T14:15:36;3.60;;;1.40;;
75413;SDS011;64758;52.122;5.404;2023-07-22T14:18:03;4.15;;;1.25;;
75413;SDS011;64758;52.122;5.404;2023-07-22T14:20:30;3.30;;;1.15;;
75413;SDS011;64758;52.122;5.404;2023-07-22T14:22:57;2.42;;;1.35;;
75413;SDS011;64758;52.122;5.404;2023-07-22T14:25:23;2.15;;;1.35;;
75413;SDS011;64758;52.122;5.404;2023-07-22T14:27:50;4.80;;;1.20;;
75413;SDS011;64758;52.122;5.404;2023-07-22T14:30:17;2.53;;;1.35;;
75413;SDS011;64758;52.122;5.404;2023-07-22T14:32:43;2.22;;;1.15;;
75413;SDS011;64758;52.122;5.404;2023-07-22T14:35:10;5.88;;;1.55;;
75413;SDS011;64758;52.122;5.404;2023-07-22T14:37:36;3.17;;;1.30;;
75413;SDS011;64758;52.122;5.404;2023-07-22T14:40:04;6.03;;;1.10;;
75413;SDS011;64758;52.122;5.404;2023-07-22T14:42:31;4.13;;;1.58;;
75413;SDS011;64758;52.122;5.404;2023-07-22T14:44:58;3.25;;;1.33;;
75413;SDS011;64758;52.122;5.404;2023-07-22T14:47:24;4.05;;;1.52;;
75413;SDS011;64758;52.122;5.404;2023-07-22T14:49:52;3.70;;;1.60;;
75413;SDS011;64758;52.122;5.404;2023-07-22T14:52:19;1.90;;;1.00;;
75413;SDS011;64758;52.122;5.404;2023-07-22T14:54:46;3.33;;;1.42;;
75413;SDS011;64758;52.122;5.404;2023-07-22T14:57:12;5.00;;;1.00;;
75413;SDS011;64758;52.122;5.404;2023-07-22T14:59:39;2.85;;;1.60;;
75413;SDS011;64758;52.122;5.404;2023-07-22T15:02:05;3.05;;;1.13;;
75413;SDS011;64758;52.122;5.404;2023-07-22T15:04:32;3.57;;;1.40;;
75413;SDS011;64758;52.122;5.404;2023-07-22T15:06:59;3.60;;;0.93;;
75413;SDS011;64758;52.122;5.404;2023-07-22T15:09:25;4.68;;;1.10;;
75413;SDS011;64758;52.122;5.404;2023-07-22T15:11:52;3.78;;;1.08;;
75413;SDS011;64758;52.122;5.404;2023-07-22T15:14:19;3.00;;;1.38;;
75413;SDS011;64758;52.122;5.404;2023-07-22T15:16:45;1.70;;;0.90;;